createdAt,value
2018-11-27T00:01:32.007Z,75.60
2018-11-27T00:03:41.906Z,75.61
2018-11-27T00:05:49.795Z,75.76
2018-11-27T00:07:55.003Z,75.84
2018-11-27T00:09:59.886Z,75.49
2018-11-27T00:12:04.708Z,75.92
2018-11-27T00:14:09.716Z,75.86
2018-11-27T00:16:14.644Z,75.43
2018-11-27T00:18:19.519Z,76.05
2018-11-27T00:20:24.337Z,75.74
2018-11-27T00:22:29.144Z,75.81
2018-11-27T00:24:33.915Z,75.66
2018-11-27T00:26:38.863Z,75.44
2018-11-27T00:28:43.794Z,75.41
2018-11-27T00:30:48.890Z,75.54
2018-11-27T00:32:53.946Z,75.37
2018-11-27T00:34:58.846Z,75.84
2018-11-27T00:37:04.660Z,75.59
2018-11-27T00:39:12.403Z,75.41
2018-11-27T00:41:17.180Z,75.23
2018-11-27T00:43:22.050Z,74.94
2018-11-27T00:45:27.365Z,75.48
2018-11-27T00:47:32.224Z,75.66
2018-11-27T00:49:37.254Z,75.54
2018-11-27T00:51:42.146Z,75.71
2018-11-27T00:53:47.003Z,75.50
2018-11-27T00:55:52.379Z,75.23
2018-11-27T00:57:57.586Z,75.35
2018-11-27T01:00:02.437Z,75.36
2018-11-27T01:02:07.812Z,75.76
2018-11-27T01:04:12.827Z,75.35
2018-11-27T01:06:17.703Z,75.65
2018-11-27T01:08:22.745Z,75.50
2018-11-27T01:10:28.036Z,76.02
2018-11-27T01:12:32.832Z,75.99
2018-11-27T01:14:37.781Z,75.88
2018-11-27T01:16:42.581Z,75.95
2018-11-27T01:18:47.528Z,76.34
2018-11-27T01:20:52.357Z,76.37
2018-11-27T01:22:57.477Z,76.21
2018-11-27T01:25:02.578Z,76.18
2018-11-27T01:27:08.034Z,76.40
2018-11-27T01:29:13.090Z,76.39
2018-11-27T01:31:18.024Z,76.22
2018-11-27T01:33:23.114Z,76.21
2018-11-27T01:35:27.929Z,76.79
2018-11-27T01:37:32.852Z,76.60
2018-11-27T01:39:37.788Z,76.90
2018-11-27T01:41:42.654Z,76.69
2018-11-27T01:43:47.460Z,76.89
2018-11-27T01:45:52.329Z,76.85
2018-11-27T01:47:57.131Z,76.67
2018-11-27T01:50:02.016Z,76.74
2018-11-27T01:52:07.364Z,76.95
2018-11-27T01:54:12.161Z,76.78
2018-11-27T01:56:16.970Z,76.80
2018-11-27T01:58:21.909Z,77.02
2018-11-27T02:00:29.763Z,76.79
2018-11-27T02:02:34.768Z,77.14
2018-11-27T02:04:40.093Z,76.86
2018-11-27T02:06:45.041Z,77.33
2018-11-27T02:08:49.890Z,76.99
2018-11-27T02:10:54.772Z,76.72
2018-11-27T02:13:01.362Z,77.06
2018-11-27T02:15:05.105Z,77.21
2018-11-27T02:17:10.121Z,77.39
2018-11-27T02:19:14.934Z,77.19
2018-11-27T02:21:19.841Z,77.43
2018-11-27T02:23:24.778Z,77.23
2018-11-27T02:25:31.227Z,77.43
2018-11-27T02:27:36.108Z,77.23
2018-11-27T02:29:40.861Z,77.62
2018-11-27T02:31:45.817Z,77.53
2018-11-27T02:33:50.712Z,77.35
2018-11-27T02:35:55.730Z,77.53
2018-11-27T02:38:00.516Z,77.23
2018-11-27T02:40:07.101Z,77.26
2018-11-27T02:42:12.090Z,77.30
2018-11-27T02:44:16.906Z,77.32
2018-11-27T02:46:21.925Z,77.63
2018-11-27T02:48:26.820Z,77.57
2018-11-27T02:50:31.696Z,77.57
2018-11-27T02:52:36.553Z,77.84
2018-11-27T02:54:41.388Z,77.65
2018-11-27T02:56:46.367Z,77.82
2018-11-27T02:58:51.181Z,77.96
2018-11-27T03:00:56.410Z,78.07
2018-11-27T03:03:01.250Z,78.09
2018-11-27T03:05:08.935Z,78.26
2018-11-27T03:07:13.706Z,78.17
2018-11-27T03:09:18.750Z,78.12
2018-11-27T03:11:23.657Z,77.79
2018-11-27T03:13:28.487Z,77.81
2018-11-27T03:15:33.421Z,77.73
2018-11-27T03:17:38.302Z,78.02
2018-11-27T03:19:43.079Z,77.92
2018-11-27T03:21:47.986Z,78.08
2018-11-27T03:23:52.817Z,77.84
2018-11-27T03:25:57.664Z,77.95
2018-11-27T03:28:02.517Z,78.62
2018-11-27T03:30:17.825Z,78.70
2018-11-27T03:32:22.669Z,78.43
2018-11-27T03:34:27.486Z,78.44
2018-11-27T03:36:32.274Z,78.30
2018-11-27T03:38:37.146Z,78.31
2018-11-27T03:40:41.955Z,78.54
2018-11-27T03:42:46.833Z,78.67
2018-11-27T03:44:51.701Z,79.15
2018-11-27T03:46:56.523Z,78.92
2018-11-27T03:49:01.349Z,78.87
2018-11-27T03:51:06.209Z,79.11
2018-11-27T03:53:11.157Z,79.06
2018-11-27T03:55:16.105Z,79.06
2018-11-27T03:57:21.103Z,78.94
2018-11-27T03:59:26.108Z,78.90
2018-11-27T04:01:30.993Z,78.87
2018-11-27T04:03:36.085Z,78.70
2018-11-27T04:05:41.904Z,78.75
2018-11-27T04:07:46.878Z,78.81
2018-11-27T04:09:51.722Z,78.70
2018-11-27T04:11:56.717Z,78.78
2018-11-27T04:14:01.681Z,78.15
2018-11-27T04:16:06.654Z,78.53
2018-11-27T04:18:11.597Z,78.11
2018-11-27T04:20:16.490Z,78.30
2018-11-27T04:22:21.480Z,77.82
2018-11-27T04:24:26.296Z,78.02
2018-11-27T04:26:31.034Z,77.88
2018-11-27T04:28:36.044Z,77.67
2018-11-27T04:30:41.078Z,77.26
2018-11-27T04:32:45.818Z,77.37
2018-11-27T04:34:50.528Z,77.21
2018-11-27T04:36:55.313Z,77.18
2018-11-27T04:39:00.756Z,77.21
2018-11-27T04:41:06.109Z,77.24
2018-11-27T04:43:10.817Z,77.22
2018-11-27T04:45:21.429Z,77.46
2018-11-27T04:47:26.341Z,77.59
2018-11-27T04:49:31.154Z,77.30
2018-11-27T04:51:36.027Z,77.34
2018-11-27T04:53:41.007Z,77.12
2018-11-27T04:55:46.062Z,77.40
2018-11-27T04:57:53.511Z,77.15
2018-11-27T04:59:58.397Z,77.09
2018-11-27T05:02:03.144Z,76.99
2018-11-27T05:04:07.963Z,76.96
2018-11-27T05:06:12.785Z,76.87
2018-11-27T05:08:17.575Z,76.94
2018-11-27T05:10:23.630Z,77.05
2018-11-27T05:12:28.676Z,77.06
2018-11-27T05:14:33.451Z,76.78
2018-11-27T05:16:38.160Z,76.99
2018-11-27T05:18:42.971Z,76.82
2018-11-27T05:20:47.717Z,76.83
2018-11-27T05:22:52.498Z,76.94
2018-11-27T05:24:57.706Z,77.11
2018-11-27T05:27:02.578Z,76.70
2018-11-27T05:29:07.790Z,76.75
2018-11-27T05:31:12.550Z,76.64
2018-11-27T05:33:17.377Z,76.73
2018-11-27T05:35:27.943Z,76.67
2018-11-27T05:37:32.810Z,76.36
2018-11-27T05:39:38.559Z,76.70
2018-11-27T05:41:43.474Z,76.29
2018-11-27T05:43:48.153Z,76.48
2018-11-27T05:45:52.872Z,76.28
2018-11-27T05:47:57.605Z,76.42
2018-11-27T05:50:02.313Z,75.92
2018-11-27T05:52:07.489Z,76.24
2018-11-27T05:54:12.341Z,76.00
2018-11-27T05:56:17.130Z,75.51
2018-11-27T05:58:21.910Z,75.45
2018-11-27T06:00:28.437Z,75.25
2018-11-27T06:02:34.225Z,74.84
2018-11-27T06:04:39.157Z,74.62
2018-11-27T06:06:44.249Z,74.10
2018-11-27T06:08:49.175Z,74.19
2018-11-27T06:10:53.955Z,73.98
2018-11-27T06:12:59.091Z,73.71
2018-11-27T06:15:04.527Z,74.11
2018-11-27T06:17:09.507Z,73.69
2018-11-27T06:19:14.398Z,73.99
2018-11-27T06:21:19.301Z,73.88
2018-11-27T06:23:24.313Z,73.83
2018-11-27T06:25:30.405Z,73.92
2018-11-27T06:27:35.194Z,73.69
2018-11-27T06:29:40.035Z,74.03
2018-11-27T06:31:44.918Z,73.85
2018-11-27T06:33:49.803Z,73.58
2018-11-27T06:35:54.573Z,73.69
2018-11-27T06:37:59.393Z,73.38
2018-11-27T06:40:05.482Z,73.54
2018-11-27T06:42:10.305Z,73.27
2018-11-27T06:44:15.301Z,73.00
2018-11-27T06:46:20.395Z,72.66
2018-11-27T06:48:25.272Z,72.26
2018-11-27T06:50:30.033Z,72.55
2018-11-27T06:52:35.137Z,72.44
2018-11-27T06:54:40.171Z,72.46
2018-11-27T06:56:44.955Z,72.24
2018-11-27T06:58:49.717Z,72.00
2018-11-27T07:00:54.412Z,72.47
2018-11-27T07:03:00.130Z,72.11
2018-11-27T07:05:05.159Z,71.86
2018-11-27T07:07:10.734Z,71.70
2018-11-27T07:09:15.551Z,71.75
2018-11-27T07:11:20.401Z,71.52
2018-11-27T07:13:26.317Z,71.76
2018-11-27T07:15:31.156Z,71.69
2018-11-27T07:17:35.874Z,71.71
2018-11-27T07:19:40.585Z,71.25
2018-11-27T07:21:45.334Z,71.27
2018-11-27T07:23:50.099Z,71.68
2018-11-27T07:25:55.017Z,71.57
2018-11-27T07:27:59.871Z,71.38
2018-11-27T07:30:05.494Z,71.13
2018-11-27T07:32:10.452Z,71.11
2018-11-27T07:34:15.433Z,70.80
2018-11-27T07:36:20.405Z,70.22
2018-11-27T07:38:25.215Z,70.55
2018-11-27T07:40:30.203Z,70.03
2018-11-27T07:42:35.066Z,70.39
2018-11-27T07:44:39.881Z,70.19
2018-11-27T07:46:44.662Z,70.01
2018-11-27T07:48:49.562Z,70.39
2018-11-27T07:50:54.327Z,70.14
2018-11-27T07:53:00.037Z,70.02
2018-11-27T07:55:04.814Z,69.41
2018-11-27T07:57:09.637Z,69.45
2018-11-27T07:59:14.521Z,69.13
2018-11-27T08:01:19.352Z,68.53
2018-11-27T08:03:24.310Z,68.85
2018-11-27T08:05:33.753Z,69.26
2018-11-27T08:07:38.825Z,69.26
2018-11-27T08:09:43.694Z,68.58
2018-11-27T08:11:48.462Z,68.40
2018-11-27T08:13:53.269Z,68.60
2018-11-27T08:15:58.056Z,67.91
2018-11-27T08:18:02.889Z,66.82
2018-11-27T08:20:10.728Z,67.64
2018-11-27T08:22:15.505Z,67.65
2018-11-27T08:24:20.317Z,67.34
2018-11-27T08:26:25.072Z,67.55
2018-11-27T08:28:29.883Z,67.25
2018-11-27T08:30:34.697Z,66.69
2018-11-27T08:32:39.923Z,66.92
2018-11-27T08:34:44.684Z,66.96
2018-11-27T08:36:50.810Z,66.92
2018-11-27T08:38:55.545Z,67.35
2018-11-27T08:41:00.270Z,67.25
2018-11-27T08:43:05.421Z,66.51
2018-11-27T08:45:12.126Z,66.03
2018-11-27T08:47:17.105Z,66.15
2018-11-27T08:49:21.916Z,66.18
2018-11-27T08:51:26.698Z,65.96
2018-11-27T08:53:31.404Z,65.10
2018-11-27T08:55:39.344Z,65.18
2018-11-27T08:57:45.757Z,64.67
2018-11-27T08:59:50.528Z,65.19
2018-11-27T09:01:55.276Z,64.83
2018-11-27T09:04:00.043Z,64.27
2018-11-27T09:06:05.123Z,64.30
2018-11-27T09:08:10.553Z,64.56
2018-11-27T09:10:20.742Z,64.15
2018-11-27T09:12:25.531Z,63.88
2018-11-27T09:14:30.274Z,63.94
2018-11-27T09:16:35.002Z,63.95
2018-11-27T09:18:39.739Z,63.32
2018-11-27T09:20:44.552Z,63.53
2018-11-27T09:22:49.293Z,64.13
2018-11-27T09:24:54.055Z,63.59
2018-11-27T09:26:58.845Z,64.03
2018-11-27T09:29:03.826Z,63.75
2018-11-27T09:31:09.620Z,64.14
2018-11-27T09:33:14.414Z,63.92
2018-11-27T09:35:19.278Z,62.88
2018-11-27T09:37:24.118Z,63.45
2018-11-27T09:39:28.903Z,62.97
2018-11-27T09:41:33.770Z,62.40
2018-11-27T09:43:38.463Z,62.44
2018-11-27T09:45:44.752Z,61.70
2018-11-27T09:47:53.012Z,60.64
2018-11-27T09:49:57.755Z,61.27
2018-11-27T09:52:02.611Z,60.90
2018-11-27T09:54:07.789Z,60.68
2018-11-27T09:56:12.491Z,60.69
2018-11-27T09:58:17.384Z,60.03
2018-11-27T10:00:25.729Z,60.73
2018-11-27T10:02:30.458Z,60.90
2018-11-27T10:04:35.164Z,60.27
2018-11-27T10:06:39.998Z,59.92
2018-11-27T10:08:44.870Z,59.37
2018-11-27T10:10:49.844Z,58.94
2018-11-27T10:12:54.820Z,58.43
2018-11-27T10:14:59.619Z,58.41
2018-11-27T10:17:04.422Z,58.27
2018-11-27T10:19:09.224Z,58.12
2018-11-27T10:21:14.028Z,57.51
2018-11-27T10:23:18.792Z,57.91
2018-11-27T10:25:23.560Z,57.46
2018-11-27T10:27:28.387Z,57.39
2018-11-27T10:29:33.326Z,58.05
2018-11-27T10:31:38.111Z,57.82
2018-11-27T10:33:42.899Z,57.37
2018-11-27T10:35:53.690Z,56.04
2018-11-27T10:37:58.452Z,56.14
2018-11-27T10:40:03.172Z,56.52
2018-11-27T10:42:08.488Z,56.11
2018-11-27T10:44:13.273Z,55.08
2018-11-27T10:46:18.077Z,55.53
2018-11-27T10:48:22.937Z,54.91
2018-11-27T10:50:27.793Z,54.96
2018-11-27T10:52:32.521Z,55.00
2018-11-27T10:54:37.222Z,54.72
2018-11-27T10:56:42.022Z,54.15
2018-11-27T10:58:46.756Z,54.66
2018-11-27T11:00:56.598Z,54.86
2018-11-27T11:04:05.487Z,55.21
2018-11-27T11:06:10.727Z,55.04
2018-11-27T11:08:15.460Z,55.09
2018-11-27T11:10:20.536Z,54.74
2018-11-27T11:12:25.461Z,54.67
2018-11-27T11:14:30.157Z,53.97
2018-11-27T11:16:35.061Z,53.92
2018-11-27T11:18:39.890Z,54.09
2018-11-27T11:20:44.690Z,54.59
2018-11-27T11:22:49.488Z,53.40
2018-11-27T11:24:54.305Z,54.25
2018-11-27T11:26:59.037Z,54.45
2018-11-27T11:29:03.918Z,53.64
2018-11-27T11:31:08.852Z,53.83
2018-11-27T11:33:13.839Z,53.16
2018-11-27T11:35:18.640Z,53.46
2018-11-27T11:37:23.585Z,53.67
2018-11-27T11:39:28.432Z,54.12
2018-11-27T11:41:33.209Z,53.79
2018-11-27T11:43:37.929Z,53.42
2018-11-27T11:45:42.686Z,53.70
2018-11-27T11:47:47.511Z,53.95
2018-11-27T11:49:52.218Z,52.88
2018-11-27T11:52:00.001Z,53.44
2018-11-27T11:54:04.751Z,52.65
2018-11-27T11:56:10.403Z,52.82
2018-11-27T11:58:15.075Z,53.19
2018-11-27T12:00:32.946Z,53.54
2018-11-27T12:02:37.741Z,53.78
2018-11-27T12:04:45.815Z,53.48
2018-11-27T12:06:55.620Z,52.79
2018-11-27T12:09:00.624Z,53.88
2018-11-27T12:11:06.050Z,53.27
2018-11-27T12:13:12.086Z,52.81
2018-11-27T12:15:19.170Z,52.61
2018-11-27T12:17:24.014Z,53.15
2018-11-27T12:19:29.069Z,53.64
2018-11-27T12:21:34.014Z,53.92
2018-11-27T12:25:55.501Z,54.03
2018-11-27T12:28:00.356Z,54.18
2018-11-27T12:30:08.837Z,53.95
2018-11-27T12:32:13.783Z,54.13
2018-11-27T12:34:18.657Z,54.23
2018-11-27T12:36:23.809Z,54.74
2018-11-27T12:38:28.735Z,54.98
2018-11-27T12:40:33.509Z,53.57
2018-11-27T12:42:38.389Z,53.67
2018-11-27T12:44:43.350Z,53.67
2018-11-27T12:46:47.977Z,54.30
2018-11-27T12:48:52.912Z,54.02
2018-11-27T12:50:57.763Z,54.37
2018-11-27T12:53:02.618Z,53.90
2018-11-27T12:55:10.021Z,53.95
2018-11-27T12:57:14.804Z,52.98
2018-11-27T12:59:19.543Z,53.62
2018-11-27T13:01:24.319Z,53.08
2018-11-27T13:03:29.200Z,53.08
2018-11-27T13:05:38.326Z,52.98
2018-11-27T13:07:43.564Z,53.21
2018-11-27T13:09:48.627Z,52.93
2018-11-27T13:11:53.540Z,52.91
2018-11-27T13:13:58.377Z,52.57
2018-11-27T13:16:03.297Z,52.84
2018-11-27T13:18:09.703Z,53.29
2018-11-27T13:20:16.428Z,53.00
2018-11-27T13:22:21.143Z,53.17
2018-11-27T13:24:26.181Z,53.87
2018-11-27T13:26:31.062Z,54.75
2018-11-27T13:28:36.046Z,54.59
2018-11-27T13:31:14.492Z,54.53
2018-11-27T13:33:29.188Z,54.61
2018-11-27T13:35:34.316Z,54.21
2018-11-27T13:37:39.670Z,54.62
2018-11-27T13:39:44.583Z,54.39
2018-11-27T13:41:49.797Z,53.56
2018-11-27T13:43:54.740Z,54.45
2018-11-27T13:46:01.611Z,53.85
2018-11-27T13:48:07.675Z,53.73
2018-11-27T13:50:17.458Z,54.28
2018-11-27T13:52:22.293Z,54.45
2018-11-27T13:54:27.086Z,53.87
2018-11-27T13:56:31.978Z,54.18
2018-11-27T13:58:37.040Z,54.29
2018-11-27T14:00:41.855Z,54.10
2018-11-27T14:02:50.716Z,54.35
2018-11-27T14:04:55.553Z,53.82
2018-11-27T14:07:00.298Z,54.34
2018-11-27T14:09:07.396Z,54.29
2018-11-27T14:11:12.263Z,54.37
2018-11-27T14:13:17.519Z,54.96
2018-11-27T14:15:25.435Z,54.28
2018-11-27T14:17:31.216Z,54.04
2018-11-27T14:19:35.998Z,54.51
2018-11-27T14:39:46.896Z,56.09
2018-11-27T14:41:51.758Z,56.21
2018-11-27T14:44:03.039Z,56.32
2018-11-27T15:04:15.663Z,56.06
2018-11-27T15:06:21.077Z,56.43
2018-11-27T15:08:26.452Z,56.23
2018-11-27T15:10:31.326Z,56.96
2018-11-27T15:12:36.420Z,56.33
2018-11-27T15:14:42.119Z,56.71
2018-11-27T15:16:47.227Z,55.83
2018-11-27T15:18:52.526Z,56.62
2018-11-27T15:20:57.489Z,56.23
2018-11-27T15:23:02.485Z,57.08
2018-11-27T15:25:09.529Z,57.03
2018-11-27T15:27:15.405Z,57.42
2018-11-27T15:29:20.560Z,56.89
2018-11-27T15:31:25.506Z,56.93
2018-11-27T15:33:30.908Z,56.22
2018-11-27T15:35:36.647Z,57.32
2018-11-27T15:37:42.872Z,57.27
2018-11-27T15:39:51.113Z,57.65
2018-11-27T15:42:05.091Z,57.08
2018-11-27T15:44:11.553Z,57.72
2018-11-27T15:46:17.496Z,58.11
2018-11-27T15:48:22.929Z,57.74
2018-11-27T15:50:28.562Z,59.00
2018-11-27T15:52:33.479Z,58.48
2018-11-27T15:54:39.368Z,58.66
2018-11-27T15:56:45.882Z,59.72
2018-11-27T15:58:52.914Z,60.11
2018-11-27T16:01:06.190Z,60.63
2018-11-27T16:03:11.099Z,60.96
2018-11-27T16:05:21.717Z,61.43
2018-11-27T16:07:27.705Z,62.24
2018-11-27T16:09:32.743Z,62.42
2018-11-27T16:11:38.176Z,62.15
2018-11-27T16:13:43.361Z,61.83
2018-11-27T16:15:48.447Z,62.50
2018-11-27T16:17:53.376Z,62.95
2018-11-27T16:19:58.180Z,62.30
2018-11-27T16:22:03.008Z,62.54
2018-11-27T16:24:08.071Z,63.68
2018-11-27T16:26:13.246Z,63.53
2018-11-27T16:28:18.408Z,63.48
2018-11-27T16:30:31.080Z,63.90
2018-11-27T16:32:36.286Z,64.30
2018-11-27T16:34:41.470Z,64.54
2018-11-27T16:36:56.767Z,64.34
2018-11-27T16:39:04.578Z,64.44
2018-11-27T16:41:21.591Z,64.84
2018-11-27T16:43:27.774Z,65.01
2018-11-27T16:45:39.718Z,64.95
2018-11-27T16:47:46.487Z,65.18
2018-11-27T16:49:51.433Z,65.11
2018-11-27T16:52:00.919Z,65.46
2018-11-27T16:54:07.545Z,65.33
2018-11-27T16:56:20.006Z,65.21
2018-11-27T16:58:27.793Z,65.98
2018-11-27T17:00:42.622Z,65.98
2018-11-27T17:05:07.382Z,65.55
2018-11-27T17:07:12.850Z,66.10
2018-11-27T17:11:45.218Z,65.94
2018-11-27T17:13:54.146Z,66.15
2018-11-27T17:16:00.195Z,65.72
2018-11-27T17:18:11.513Z,65.75
2018-11-27T17:20:31.443Z,65.22
2018-11-27T17:22:37.668Z,66.28
2018-11-27T17:24:43.796Z,66.21
2018-11-27T17:26:50.950Z,66.35
2018-11-27T17:28:56.874Z,66.21
2018-11-27T17:31:12.831Z,66.24
2018-11-27T17:33:33.104Z,67.21
2018-11-27T17:35:40.114Z,66.01
2018-11-27T17:37:46.092Z,65.98
2018-11-27T17:40:02.300Z,65.91
2018-11-27T17:42:10.485Z,65.36
2018-11-27T17:44:18.139Z,65.06
2018-11-27T17:46:24.328Z,65.22
2018-11-27T17:48:29.702Z,64.14
2018-11-27T17:50:35.289Z,64.12
2018-11-27T17:52:42.505Z,63.92
2018-11-27T17:54:48.491Z,63.74
2018-11-27T17:56:54.291Z,63.59
2018-11-27T17:58:59.459Z,62.98
2018-11-27T18:01:05.219Z,62.49
2018-11-27T18:03:18.009Z,62.78
2018-11-27T18:05:32.064Z,62.88
2018-11-27T18:07:38.562Z,62.77
2018-11-27T18:14:30.592Z,62.40
2018-11-27T18:16:38.261Z,61.99
2018-11-27T18:21:05.923Z,62.64
2018-11-27T18:23:16.640Z,62.63
2018-11-27T18:25:24.411Z,63.07
2018-11-27T18:27:30.790Z,63.17
2018-11-27T18:29:39.900Z,63.72
2018-11-27T18:31:55.171Z,64.44
2018-11-27T18:34:06.057Z,64.34
2018-11-27T18:36:14.118Z,64.50
2018-11-27T18:38:22.299Z,64.95
2018-11-27T18:40:29.689Z,64.69
2018-11-27T18:42:39.833Z,65.53
2018-11-27T18:44:46.698Z,65.56
2018-11-27T18:46:53.427Z,66.15
2018-11-27T18:49:00.337Z,66.22
2018-11-27T18:51:06.817Z,65.53
2018-11-27T18:53:12.439Z,65.89
2018-11-27T18:55:18.818Z,65.62
2018-11-27T18:57:29.688Z,66.08
2018-11-27T18:59:42.929Z,65.60
2018-11-27T19:01:48.807Z,65.87
2018-11-27T19:03:54.748Z,65.97
2018-11-27T19:08:32.029Z,66.19
2018-11-27T19:10:38.276Z,65.84
2018-11-27T19:12:45.903Z,66.56
2018-11-27T19:14:56.804Z,66.56
2018-11-27T19:17:13.993Z,66.97
2018-11-27T19:19:21.448Z,66.68
2018-11-27T19:21:30.554Z,66.15
2018-11-27T19:23:37.439Z,66.94
2018-11-27T19:25:45.449Z,66.58
2018-11-27T19:27:52.742Z,67.12
2018-11-27T19:30:01.046Z,66.85
2018-11-27T19:32:15.756Z,67.14
2018-11-27T19:34:23.548Z,67.11
2018-11-27T19:36:33.662Z,67.34
2018-11-27T19:38:48.137Z,67.48
2018-11-27T19:41:10.566Z,67.52
2018-11-27T19:45:42.929Z,67.36
2018-11-27T19:50:14.359Z,67.92
2018-11-27T19:52:22.561Z,68.03
2018-11-27T19:54:50.285Z,67.65
2018-11-27T19:59:46.941Z,67.64
2018-11-27T20:02:01.743Z,67.99
2018-11-27T20:07:19.305Z,68.15
2018-11-27T20:09:29.198Z,67.96
2018-11-27T20:11:35.452Z,68.26
2018-11-27T20:13:47.743Z,68.42
2018-11-27T20:15:55.699Z,68.17
2018-11-27T20:18:04.636Z,68.71
2018-11-27T20:20:17.664Z,68.57
2018-11-27T20:22:31.290Z,68.43
2018-11-27T20:24:39.833Z,68.63
2018-11-27T20:26:47.468Z,68.42
2018-11-27T20:28:54.094Z,68.74
2018-11-27T20:31:00.360Z,68.98
2018-11-27T20:33:13.605Z,68.82
2018-11-27T20:35:30.541Z,69.11
2018-11-27T20:37:45.719Z,69.43
2018-11-27T20:40:01.792Z,69.16
2018-11-27T20:42:14.771Z,68.95
2018-11-27T20:44:31.764Z,68.25
2018-11-27T20:46:41.649Z,68.68
2018-11-27T20:48:50.716Z,69.19
2018-11-27T20:51:14.879Z,68.89
2018-11-27T20:55:41.295Z,68.83
2018-11-27T21:00:36.532Z,68.58
2018-11-27T21:02:44.553Z,68.55
2018-11-27T21:04:56.337Z,68.41
2018-11-27T21:27:46.416Z,68.08
2018-11-27T21:30:07.111Z,67.76
2018-11-27T21:32:23.926Z,67.45
2018-11-27T21:34:29.903Z,67.25
2018-11-27T21:36:38.272Z,67.74
2018-11-27T21:38:50.783Z,67.90
2018-11-27T21:41:02.048Z,67.80
2018-11-27T21:43:19.441Z,67.81
2018-11-27T21:47:47.685Z,67.88
2018-11-27T21:49:57.389Z,67.34
2018-11-27T21:52:16.032Z,67.91
2018-11-27T21:54:23.403Z,68.37
2018-11-27T21:56:42.493Z,67.70
2018-11-27T21:58:48.579Z,67.79
2018-11-27T22:01:04.565Z,67.91
2018-11-27T22:03:12.985Z,67.24
2018-11-27T22:05:19.582Z,67.65
2018-11-27T22:07:28.426Z,67.72
2018-11-27T22:09:37.079Z,67.87
2018-11-27T22:11:46.932Z,67.65
2018-11-27T22:13:54.559Z,67.51
2018-11-27T22:15:59.878Z,67.65
2018-11-27T22:18:13.141Z,67.09
2018-11-27T22:23:08.950Z,66.42
2018-11-27T22:25:14.581Z,67.06
2018-11-27T22:27:22.070Z,67.59
2018-11-27T22:29:29.374Z,67.53
2018-11-27T22:31:34.986Z,66.77
2018-11-27T22:33:57.593Z,67.51
2018-11-27T22:36:05.827Z,67.08
2018-11-27T22:38:13.358Z,67.87
2018-11-27T22:40:21.588Z,67.69
2018-11-27T22:42:33.272Z,67.54
2018-11-27T22:44:38.921Z,66.98
2018-11-27T22:46:44.219Z,66.94
2018-11-27T22:48:50.397Z,66.39
2018-11-27T22:51:06.929Z,67.30
2018-11-27T22:53:19.084Z,67.44
2018-11-27T22:55:30.077Z,66.87
2018-11-27T22:57:35.944Z,66.17
2018-11-27T22:59:42.175Z,66.16
2018-11-27T23:01:47.694Z,66.68
2018-11-27T23:03:53.185Z,66.54
2018-11-27T23:06:01.008Z,66.32
2018-11-27T23:08:06.881Z,66.51
2018-11-27T23:10:13.828Z,65.76
2018-11-27T23:12:19.721Z,65.74
2018-11-27T23:14:24.918Z,66.28
2018-11-27T23:16:31.457Z,66.44
2018-11-27T23:18:36.779Z,66.62
2018-11-27T23:20:42.024Z,66.23
2018-11-27T23:22:47.529Z,66.64
2018-11-27T23:24:53.570Z,67.23
2018-11-27T23:26:58.821Z,66.78
2018-11-27T23:29:05.998Z,65.86
2018-11-27T23:31:11.264Z,65.61
2018-11-27T23:33:19.470Z,65.78
2018-11-27T23:35:35.829Z,66.10
2018-11-27T23:37:43.774Z,66.61
2018-11-27T23:39:52.113Z,66.09
2018-11-27T23:41:59.527Z,67.04
2018-11-27T23:44:04.920Z,66.35
2018-11-27T23:46:12.249Z,66.25
2018-11-27T23:48:21.505Z,66.53
2018-11-27T23:50:28.835Z,66.14
2018-11-27T23:52:36.112Z,66.03
2018-11-27T23:54:44.535Z,66.06
2018-11-27T23:56:53.079Z,66.64
2018-11-27T23:59:00.604Z,66.42
